createdAt,value
2022-08-07T00:07:22.088Z,27
2022-08-07T00:17:24.247Z,27
2022-08-07T00:27:26.481Z,27
2022-08-07T00:37:29.342Z,27
2022-08-07T00:48:05.574Z,26.9
2022-08-07T00:57:34.074Z,26.9
2022-08-07T01:07:34.514Z,26.9
2022-08-07T01:17:36.231Z,26.9
2022-08-07T01:27:38.404Z,26.9
2022-08-07T01:48:17.169Z,26.8
2022-08-07T01:58:01.819Z,26.8
2022-08-07T02:07:50.303Z,26.8
2022-08-07T02:17:49.265Z,26.7
2022-08-07T02:27:51.351Z,26.7
2022-08-07T02:37:53.091Z,26.7
2022-08-07T02:57:57.085Z,26.7
2022-08-07T03:08:05.601Z,26.6
2022-08-07T03:18:01.758Z,26.6
2022-08-07T03:28:09.897Z,26.6
2022-08-07T03:38:05.491Z,26.6
2022-08-07T03:48:09.932Z,26.6
2022-08-07T03:58:35.568Z,26.5
2022-08-07T04:08:12.732Z,26.5
2022-08-07T04:18:32.119Z,26.5
2022-08-07T04:38:19.104Z,26.5
2022-08-07T04:58:29.590Z,26.4
2022-08-07T05:08:45.523Z,26.4
2022-08-07T05:18:27.794Z,26.4
2022-08-07T05:28:30.553Z,26.4
2022-08-07T05:38:58.581Z,26.4
2022-08-07T05:48:35.148Z,26.4
2022-08-07T05:58:37.726Z,26.4
2022-08-07T06:08:42.492Z,26.4
2022-08-07T06:18:43.033Z,26.5
2022-08-07T06:28:43.677Z,26.5
2022-08-07T06:38:51.572Z,26.6
2022-08-07T07:00:10.584Z,26.8
2022-08-07T07:08:52.802Z,26.9
2022-08-07T07:18:54.480Z,27
2022-08-07T07:29:28.668Z,27.1
2022-08-07T07:38:59.352Z,27.2
2022-08-07T07:49:09.104Z,27.4
2022-08-07T07:59:03.622Z,27.5
2022-08-07T08:09:05.387Z,27.6
2022-08-07T08:19:09.605Z,27.7
2022-08-07T08:29:09.906Z,27.8
2022-08-07T08:39:12.512Z,27.9
2022-08-07T08:49:14.319Z,28
2022-08-07T08:59:16.344Z,28.1
2022-08-07T09:09:20.902Z,28.2
2022-08-07T09:19:44.946Z,28.2
2022-08-07T09:30:02.577Z,28.3
2022-08-07T09:39:53.516Z,28.4
2022-08-07T09:49:59.967Z,28.4
2022-08-07T10:19:37.565Z,28.5
2022-08-07T10:29:35.149Z,28.5
2022-08-07T10:39:41.810Z,28.5
2022-08-07T10:49:45.461Z,28.5
2022-08-07T10:59:44.138Z,28.5
2022-08-07T11:10:06.812Z,28.5
2022-08-07T11:19:45.339Z,28.5
2022-08-07T11:29:53.947Z,28.5
2022-08-07T11:39:59.567Z,28.5
2022-08-07T11:50:25.201Z,28.5
2022-08-07T12:00:08.386Z,28.5
2022-08-07T12:00:19.418Z,28.5
2022-08-07T12:10:05.733Z,28.4
2022-08-07T12:20:10.476Z,28.4
2022-08-07T12:30:08.095Z,28.4
2022-08-07T12:40:24.148Z,28.4
2022-08-07T12:50:34.643Z,28.3
2022-08-07T13:00:16.666Z,28.3
2022-08-07T13:10:20.209Z,28.3
2022-08-07T13:20:19.383Z,28.2
2022-08-07T13:30:39.765Z,28.2
2022-08-07T13:40:34.599Z,28.2
2022-08-07T14:00:28.503Z,28.1
2022-08-07T14:10:31.398Z,28.1
2022-08-07T14:20:41.377Z,28.1
2022-08-07T14:30:34.359Z,28.1
2022-08-07T14:40:36.328Z,28.1
2022-08-07T14:50:38.803Z,28.1
2022-08-07T15:00:40.581Z,28.1
2022-08-07T15:20:54.881Z,28
2022-08-07T15:30:59.356Z,28
2022-08-07T15:41:00.572Z,28
2022-08-07T15:51:01.295Z,28
2022-08-07T16:00:53.714Z,28
2022-08-07T16:10:56.032Z,28
2022-08-07T16:21:44.267Z,28
2022-08-07T16:31:00.393Z,27.9
2022-08-07T16:41:04.450Z,27.9
2022-08-07T16:51:13.866Z,27.9
2022-08-07T17:01:07.865Z,27.9
2022-08-07T17:11:09.872Z,27.9
2022-08-07T17:21:18.357Z,27.9
2022-08-07T17:31:15.833Z,27.9
2022-08-07T17:42:03.241Z,27.9
2022-08-07T17:51:21.455Z,27.9
2022-08-07T18:01:22.065Z,27.9
2022-08-07T18:21:42.423Z,27.8
2022-08-07T18:31:27.073Z,27.8
2022-08-07T18:41:44.754Z,27.8
2022-08-07T18:52:25.742Z,27.8
2022-08-07T19:02:16.070Z,27.8
2022-08-07T19:11:37.278Z,27.8
2022-08-07T19:21:45.264Z,27.8
2022-08-07T19:32:05.608Z,27.7
2022-08-07T19:41:45.170Z,27.7
2022-08-07T19:51:51.631Z,27.7
2022-08-07T20:01:52.465Z,27.7
2022-08-07T20:12:01.198Z,27.7
2022-08-07T20:41:55.637Z,27.6
2022-08-07T20:51:57.526Z,27.6
2022-08-07T21:12:01.178Z,27.6
2022-08-07T22:12:15.317Z,27.5
2022-08-07T22:22:18.273Z,27.5
2022-08-07T22:32:20.216Z,27.4
2022-08-07T22:42:25.722Z,27.4
2022-08-07T22:52:34.856Z,27.4
2022-08-07T23:02:27.477Z,27.4
2022-08-07T23:12:32.920Z,27.4
2022-08-07T23:22:29.969Z,27.3
2022-08-07T23:33:18.827Z,27.3
2022-08-07T23:42:34.299Z,27.3
2022-08-07T23:52:59.214Z,27.3
